Time;durP1;ratioP1;P1;durP2;ratioP2;P2;SDS_P1;SDS_P2;PMS_P1;PMS_P2;Temp;Humidity;BMP_temperature;BMP_pressure;BME280_temperature;BME280_humidity;BME280_pressure;Samples;Min_cycle;Max_cycle;Signal;HPM_P1;HPM_P2
2023/01/16 00:01:54;;;;;;;9.17;0.50;;;5.80;99.90;;;;;;5077967;28;20491;-71
2023/01/16 00:04:21;;;;;;;1.60;0.50;;;5.80;99.90;;;;;;5095292;28;20032;-71
2023/01/16 00:06:46;;;;;;;2.70;0.40;;;5.90;99.90;;;;;;5095782;28;20384;-71
2023/01/16 00:09:12;;;;;;;1.20;0.30;;;5.90;99.90;;;;;;5095357;28;20102;-71
2023/01/16 00:11:38;;;;;;;1.37;0.37;;;5.90;99.90;;;;;;5096079;28;20051;-71
2023/01/16 00:14:03;;;;;;;1.20;0.37;;;6.00;99.90;;;;;;5077542;28;20036;-71
2023/01/16 00:16:29;;;;;;;4.50;0.60;;;6.00;99.90;;;;;;5077017;28;20035;-71
2023/01/16 00:18:55;;;;;;;3.80;0.63;;;6.00;99.90;;;;;;5077376;28;20044;-71
2023/01/16 00:21:25;;;;;;;2.10;0.60;;;6.00;99.90;;;;;;5095114;28;20469;-71
2023/01/16 00:23:52;;;;;;;2.27;0.77;;;6.00;99.90;;;;;;5077610;28;20042;-71
2023/01/16 00:26:18;;;;;;;3.00;0.50;;;6.00;99.90;;;;;;5076639;28;20046;-71
2023/01/16 00:28:43;;;;;;;2.90;0.50;;;6.00;99.90;;;;;;5077293;28;20036;-71
2023/01/16 00:31:09;;;;;;;1.20;0.40;;;6.10;99.90;;;;;;5077147;28;20028;-73
2023/01/16 00:33:35;;;;;;;1.87;0.30;;;6.10;99.90;;;;;;5076847;28;20043;-71
2023/01/16 00:36:02;;;;;;;2.23;0.20;;;6.00;99.90;;;;;;5095169;28;20381;-71
2023/01/16 00:38:27;;;;;;;4.07;0.40;;;6.00;99.90;;;;;;5094831;28;20020;-71
2023/01/16 00:40:53;;;;;;;1.60;0.30;;;6.00;99.90;;;;;;5077222;28;20027;-71
2023/01/16 00:43:18;;;;;;;2.53;0.40;;;5.90;99.90;;;;;;5076336;28;20097;-71
2023/01/16 00:45:44;;;;;;;3.63;0.50;;;5.90;99.90;;;;;;5077081;28;20024;-71
2023/01/16 00:48:10;;;;;;;3.43;0.53;;;5.90;99.90;;;;;;5076994;28;20032;-73
2023/01/16 00:50:36;;;;;;;2.43;0.60;;;5.80;99.90;;;;;;5076525;28;20111;-71
2023/01/16 00:53:01;;;;;;;1.40;0.37;;;5.80;99.90;;;;;;5076987;28;20036;-70
2023/01/16 00:55:27;;;;;;;3.90;0.60;;;5.80;99.90;;;;;;5075426;28;20150;-71
2023/01/16 00:57:52;;;;;;;2.10;0.53;;;5.70;99.90;;;;;;5094918;28;20032;-71
2023/01/16 01:00:20;;;;;;;2.40;0.47;;;5.70;99.90;;;;;;5076224;28;20035;-71
2023/01/16 01:02:48;;;;;;;2.83;0.33;;;5.70;99.90;;;;;;5094755;28;20039;-71
2023/01/16 01:05:14;;;;;;;2.73;0.47;;;5.60;99.90;;;;;;5094508;28;20028;-73
2023/01/16 01:07:39;;;;;;;3.00;0.43;;;5.60;99.90;;;;;;5076584;28;20515;-71
2023/01/16 01:10:05;;;;;;;2.70;0.50;;;5.60;99.90;;;;;;5076829;28;20074;-71
2023/01/16 01:12:31;;;;;;;4.57;0.50;;;5.60;99.90;;;;;;5075803;28;20057;-71
2023/01/16 01:14:56;;;;;;;3.43;0.50;;;5.60;99.90;;;;;;5094686;28;20448;-71
2023/01/16 01:17:22;;;;;;;2.90;0.40;;;5.60;99.90;;;;;;5075480;28;20078;-71
2023/01/16 01:19:47;;;;;;;2.97;0.70;;;5.50;99.90;;;;;;5076607;28;20020;-71
2023/01/16 01:22:15;;;;;;;4.90;0.97;;;5.60;99.90;;;;;;5094029;28;20474;-74
2023/01/16 01:24:41;;;;;;;1.77;0.63;;;5.50;99.90;;;;;;5076521;28;20032;-71
2023/01/16 01:27:07;;;;;;;0.90;0.30;;;5.50;99.90;;;;;;5094320;28;20093;-71
2023/01/16 01:29:33;;;;;;;1.80;0.63;;;5.50;99.90;;;;;;5093577;28;20035;-71
2023/01/16 01:31:58;;;;;;;2.33;0.60;;;5.50;99.90;;;;;;5076272;28;20032;-71
2023/01/16 01:34:24;;;;;;;1.00;0.50;;;5.50;99.90;;;;;;5075441;28;20106;-72
2023/01/16 01:36:50;;;;;;;3.27;0.57;;;5.50;99.90;;;;;;5094036;28;20028;-71
2023/01/16 01:39:15;;;;;;;3.77;0.60;;;5.50;99.90;;;;;;5093387;28;20028;-72
2023/01/16 01:41:41;;;;;;;5.47;0.97;;;5.50;99.90;;;;;;5094018;28;20028;-71
2023/01/16 01:44:48;;;;;;;1.63;0.60;;;5.50;99.90;;;;;;5093977;28;20070;-71
2023/01/16 01:47:15;;;;;;;2.23;0.50;;;5.50;99.90;;;;;;5075929;28;20115;-73
2023/01/16 01:49:41;;;;;;;3.33;0.73;;;5.50;99.90;;;;;;5094174;28;20028;-71
2023/01/16 01:52:09;;;;;;;1.57;0.40;;;5.50;99.90;;;;;;5075916;28;20069;-71
2023/01/16 01:54:42;;;;;;;2.83;1.23;;;5.40;99.90;;;;;;5075186;28;20032;-71
2023/01/16 01:57:19;;;;;;;4.20;1.10;;;5.40;99.90;;;;;;5093822;28;20060;-71
2023/01/16 01:59:56;;;;;;;2.03;0.33;;;5.50;99.90;;;;;;5094192;28;20028;-71
2023/01/16 02:02:25;;;;;;;3.80;0.60;;;5.50;99.90;;;;;;5093332;28;20073;-72
2023/01/16 02:04:56;;;;;;;3.67;0.30;;;5.50;99.90;;;;;;5075753;28;20039;-71
2023/01/16 02:07:23;;;;;;;2.00;0.50;;;5.50;99.90;;;;;;5074870;28;20111;-71
2023/01/16 02:09:52;;;;;;;1.40;0.30;;;5.60;99.90;;;;;;5075581;28;20035;-71
2023/01/16 02:12:18;;;;;;;2.33;0.37;;;5.60;99.90;;;;;;5074862;28;20023;-72
2023/01/16 02:14:46;;;;;;;2.17;0.40;;;5.60;99.90;;;;;;5075453;28;20047;-71
2023/01/16 02:20:21;;;;;;;0.60;0.20;;;5.70;99.90;;;;;;5093670;28;20039;-71
2023/01/16 02:23:24;;;;;;;1.10;0.40;;;5.80;99.90;;;;;;5093626;28;20024;-71
2023/01/16 02:26:08;;;;;;;2.47;0.37;;;5.80;99.90;;;;;;5075296;28;20035;-72
2023/01/16 02:28:55;;;;;;;3.07;0.37;;;5.90;99.90;;;;;;5093133;28;20036;-71
2023/01/16 02:31:39;;;;;;;3.83;1.20;;;5.90;99.90;;;;;;5074938;28;20024;-72
2023/01/16 02:34:29;;;;;;;2.00;0.40;;;5.90;99.90;;;;;;5093315;28;20108;-72
2023/01/16 02:37:34;;;;;;;2.60;0.40;;;6.00;99.90;;;;;;5075462;28;20429;-72
2023/01/16 02:40:39;;;;;;;2.00;0.40;;;6.00;99.90;;;;;;5075032;28;20024;-72
2023/01/16 02:43:33;;;;;;;0.87;0.70;;;6.10;99.90;;;;;;5024684;28;20441;-72
2023/01/16 02:46:33;;;;;;;2.40;0.60;;;6.10;99.90;;;;;;5093045;28;20051;-72
2023/01/16 02:49:02;;;;;;;1.93;0.40;;;6.10;99.90;;;;;;5074658;28;20020;-72
2023/01/16 02:51:49;;;;;;;3.43;0.40;;;6.10;99.90;;;;;;5074059;28;20097;-72
2023/01/16 02:54:32;;;;;;;1.77;0.37;;;6.10;99.90;;;;;;5074723;28;20377;-71
2023/01/16 02:57:18;;;;;;;2.80;0.40;;;6.10;99.90;;;;;;5092960;28;20024;-72
2023/01/16 02:59:44;;;;;;;2.67;0.40;;;6.10;99.90;;;;;;5092885;28;20073;-71
2023/01/16 03:02:10;;;;;;;2.97;0.30;;;6.20;99.90;;;;;;5074731;28;20028;-71
2023/01/16 03:04:35;;;;;;;1.10;0.30;;;6.10;99.90;;;;;;5092000;28;20057;-72
2023/01/16 03:07:14;;;;;;;1.10;0.30;;;6.20;99.90;;;;;;5074750;28;20476;-72
2023/01/16 03:09:46;;;;;;;2.90;0.50;;;6.20;99.90;;;;;;5092334;28;20043;-71
2023/01/16 03:13:02;;;;;;;4.03;0.40;;;6.20;99.90;;;;;;5074564;28;20028;-72
2023/01/16 03:15:39;;;;;;;1.50;0.60;;;6.30;99.90;;;;;;4989847;28;20111;-72
2023/01/16 03:18:18;;;;;;;2.20;0.50;;;6.30;99.90;;;;;;5077510;28;20497;-71
2023/01/16 03:21:02;;;;;;;3.73;0.37;;;6.30;99.90;;;;;;5091768;28;20063;-71
2023/01/16 03:23:41;;;;;;;2.40;0.57;;;6.30;99.90;;;;;;5091866;28;20020;-72
2023/01/16 03:26:29;;;;;;;1.27;0.40;;;6.20;99.90;;;;;;5074473;28;20028;-71
2023/01/16 03:29:29;;;;;;;0.77;0.60;;;6.20;99.90;;;;;;5092506;28;20029;-71
2023/01/16 03:32:04;;;;;;;2.47;0.37;;;6.20;99.90;;;;;;5069576;28;20480;-72
2023/01/16 03:34:48;;;;;;;3.20;0.27;;;6.20;99.90;;;;;;5073598;28;20075;-72
2023/01/16 03:37:13;;;;;;;2.00;0.50;;;6.20;99.90;;;;;;5074317;28;20082;-71
2023/01/16 03:39:43;;;;;;;2.00;0.30;;;6.20;99.90;;;;;;5073429;28;20416;-71
2023/01/16 03:42:21;;;;;;;3.03;0.30;;;6.20;99.90;;;;;;5092217;28;20400;-71
2023/01/16 03:44:51;;;;;;;2.07;0.50;;;6.20;99.90;;;;;;5074347;28;20036;-71
2023/01/16 03:47:23;;;;;;;1.17;0.30;;;6.20;99.90;;;;;;5092304;28;20028;-71
2023/01/16 03:49:55;;;;;;;2.60;0.40;;;6.10;99.90;;;;;;5074010;28;20024;-71
2023/01/16 03:52:25;;;;;;;2.08;0.40;;;6.10;99.90;;;;;;5074281;28;20055;-71
2023/01/16 03:54:53;;;;;;;2.00;0.40;;;6.20;99.90;;;;;;5092259;28;20036;-71
2023/01/16 03:57:32;;;;;;;2.37;0.40;;;6.20;99.90;;;;;;5073759;28;20028;-71
2023/01/16 03:59:59;;;;;;;2.77;0.57;;;6.10;99.90;;;;;;5074105;28;20039;-71
2023/01/16 04:02:39;;;;;;;3.90;0.53;;;6.10;99.90;;;;;;5091906;28;20420;-74
2023/01/16 04:05:22;;;;;;;5.33;0.43;;;6.10;99.90;;;;;;5092349;28;20114;-71
2023/01/16 04:07:56;;;;;;;1.47;0.40;;;6.10;99.90;;;;;;5091530;28;20048;-71
2023/01/16 04:10:25;;;;;;;2.10;0.30;;;6.10;99.90;;;;;;5073996;28;20094;-72
2023/01/16 04:12:56;;;;;;;4.70;1.07;;;6.10;99.90;;;;;;5073783;28;20024;-71
2023/01/16 04:15:24;;;;;;;4.37;0.50;;;6.10;99.90;;;;;;5092475;28;20030;-71
2023/01/16 04:17:50;;;;;;;3.30;0.40;;;6.10;99.90;;;;;;5073651;28;20048;-71
2023/01/16 04:20:16;;;;;;;2.63;0.67;;;6.10;99.90;;;;;;5074046;28;20020;-71
2023/01/16 04:22:47;;;;;;;2.03;0.37;;;6.10;99.90;;;;;;5073136;28;20224;-71
2023/01/16 04:25:13;;;;;;;2.03;0.50;;;6.10;99.90;;;;;;5073853;28;20031;-71
2023/01/16 04:27:38;;;;;;;3.73;0.30;;;6.20;99.90;;;;;;5091361;28;20036;-71
2023/01/16 04:30:05;;;;;;;3.23;0.40;;;6.20;99.90;;;;;;5073359;28;20028;-71
2023/01/16 04:32:30;;;;;;;3.10;0.37;;;6.20;99.90;;;;;;5076366;28;20404;-71
2023/01/16 04:34:56;;;;;;;3.80;0.60;;;6.30;99.90;;;;;;5077182;28;20490;-71
2023/01/16 04:37:21;;;;;;;2.17;0.47;;;6.30;99.90;;;;;;5095731;28;20372;-71
2023/01/16 04:39:47;;;;;;;2.90;0.60;;;6.30;99.90;;;;;;5076498;28;20382;-71
2023/01/16 04:42:13;;;;;;;4.40;0.40;;;6.30;99.90;;;;;;5077255;28;20065;-71
2023/01/16 04:44:39;;;;;;;1.43;0.30;;;6.30;99.90;;;;;;5094587;28;20063;-71
2023/01/16 04:47:05;;;;;;;1.57;0.37;;;6.30;99.90;;;;;;5077145;28;20032;-71
2023/01/16 04:49:30;;;;;;;3.10;0.73;;;6.30;99.90;;;;;;5076412;28;20024;-72
2023/01/16 04:51:56;;;;;;;1.23;0.30;;;6.40;99.90;;;;;;5077208;28;20039;-71
2023/01/16 04:54:21;;;;;;;4.20;0.40;;;6.40;99.90;;;;;;5095090;28;20377;-71
2023/01/16 04:56:47;;;;;;;2.80;0.40;;;6.40;99.90;;;;;;5076037;28;20102;-71
2023/01/16 04:59:13;;;;;;;1.17;0.33;;;6.40;99.90;;;;;;5076905;28;20024;-71
2023/01/16 05:01:39;;;;;;;1.87;0.43;;;6.40;99.90;;;;;;5076258;28;20030;-71
2023/01/16 05:04:06;;;;;;;1.40;0.30;;;6.40;99.90;;;;;;5076953;28;20428;-71
2023/01/16 05:06:32;;;;;;;2.83;0.90;;;6.40;99.90;;;;;;5076087;28;20024;-71
2023/01/16 05:08:58;;;;;;;3.17;0.40;;;6.40;99.90;;;;;;5094863;28;20400;-71
2023/01/16 05:11:24;;;;;;;1.50;0.50;;;6.40;99.90;;;;;;5076639;28;20068;-71
2023/01/16 05:13:49;;;;;;;1.83;0.43;;;6.30;99.90;;;;;;5075848;28;20043;-71
2023/01/16 05:16:15;;;;;;;2.13;0.50;;;6.40;99.90;;;;;;5076611;28;20031;-71
2023/01/16 05:18:40;;;;;;;1.70;0.30;;;6.40;99.90;;;;;;5093535;28;20052;-71
2023/01/16 05:21:06;;;;;;;0.67;0.20;;;6.40;99.90;;;;;;5076653;28;20461;-71
2023/01/16 05:23:37;;;;;;;1.10;0.40;;;6.40;99.90;;;;;;5093726;28;20035;-71
2023/01/16 05:26:03;;;;;;;2.80;0.30;;;6.40;99.90;;;;;;5076457;28;20465;-71
2023/01/16 05:28:30;;;;;;;2.13;0.57;;;6.40;99.90;;;;;;5075637;28;20122;-74
2023/01/16 05:30:56;;;;;;;1.17;0.30;;;6.40;99.90;;;;;;5094218;28;20111;-71
2023/01/16 05:33:22;;;;;;;1.63;0.17;;;6.40;99.90;;;;;;5094051;28;20036;-71
2023/01/16 05:35:48;;;;;;;3.80;0.60;;;6.40;99.90;;;;;;5093491;28;20064;-71
2023/01/16 05:38:15;;;;;;;3.37;0.60;;;6.40;99.90;;;;;;5076164;28;20031;-71
2023/01/16 05:40:41;;;;;;;3.43;0.43;;;6.40;99.90;;;;;;5075376;28;20077;-71
2023/01/16 05:43:07;;;;;;;2.50;0.30;;;6.40;99.90;;;;;;5093765;28;20024;-71
2023/01/16 05:45:33;;;;;;;3.00;0.40;;;6.30;99.90;;;;;;5093622;28;20026;-72
2023/01/16 05:47:58;;;;;;;1.90;0.40;;;6.30;99.90;;;;;;5094007;28;20431;-72
2023/01/16 05:50:24;;;;;;;1.73;0.30;;;6.30;99.90;;;;;;5075923;28;20078;-71
2023/01/16 05:52:50;;;;;;;2.37;0.40;;;6.20;99.90;;;;;;5093007;28;20031;-71
2023/01/16 05:55:16;;;;;;;3.57;0.30;;;6.20;99.90;;;;;;5075642;28;20455;-71
2023/01/16 05:57:41;;;;;;;3.03;0.50;;;6.10;99.90;;;;;;5074800;28;20043;-71
2023/01/16 06:00:08;;;;;;;2.30;0.20;;;6.10;99.90;;;;;;5075694;28;20160;-71
2023/01/16 06:02:34;;;;;;;1.60;0.50;;;6.10;99.90;;;;;;5058040;28;20028;-72
2023/01/16 06:04:59;;;;;;;1.77;0.20;;;6.00;99.90;;;;;;5093696;28;20028;-71
2023/01/16 06:07:25;;;;;;;4.90;0.30;;;6.00;99.90;;;;;;5080288;28;20380;-71
2023/01/16 06:09:50;;;;;;;2.43;0.40;;;5.90;99.90;;;;;;5095842;28;20065;-71
2023/01/16 06:12:17;;;;;;;3.60;0.57;;;5.90;99.90;;;;;;5114363;28;20102;-71
2023/01/16 06:14:43;;;;;;;1.10;0.30;;;5.90;99.90;;;;;;5094863;28;20041;-71
2023/01/16 06:17:09;;;;;;;0.40;0.30;;;5.80;99.90;;;;;;5095341;28;20123;-72
2023/01/16 06:19:35;;;;;;;2.77;0.67;;;5.90;99.90;;;;;;5094889;28;20055;-71
2023/01/16 06:22:01;;;;;;;1.27;0.30;;;5.80;99.90;;;;;;5095685;28;20162;-71
2023/01/16 06:24:26;;;;;;;1.43;0.30;;;5.80;99.90;;;;;;5095423;28;20110;-71
2023/01/16 06:26:52;;;;;;;3.33;0.50;;;5.70;99.90;;;;;;5094615;28;20027;-71
2023/01/16 06:29:17;;;;;;;3.20;0.50;;;5.60;99.90;;;;;;5113333;28;20030;-70
2023/01/16 06:31:43;;;;;;;3.60;0.60;;;5.60;99.90;;;;;;5094645;28;20020;-71
2023/01/16 06:34:08;;;;;;;1.50;0.40;;;5.60;99.90;;;;;;5113520;28;20534;-71
2023/01/16 06:36:34;;;;;;;3.30;0.40;;;5.60;99.90;;;;;;5094646;28;20034;-75
2023/01/16 06:39:00;;;;;;;1.67;0.30;;;5.50;99.90;;;;;;5113084;28;20473;-71
2023/01/16 06:41:25;;;;;;;2.30;0.50;;;5.50;99.90;;;;;;5095172;28;20097;-71
2023/01/16 06:43:51;;;;;;;1.80;0.40;;;5.50;99.90;;;;;;5112304;28;20027;-71
2023/01/16 06:46:16;;;;;;;3.30;0.77;;;5.50;99.90;;;;;;5094879;28;20488;-71
2023/01/16 06:48:42;;;;;;;2.17;0.20;;;5.50;99.90;;;;;;5094405;28;20055;-71
2023/01/16 06:51:09;;;;;;;1.07;0.40;;;5.50;99.90;;;;;;5113237;28;20031;-71
2023/01/16 06:53:35;;;;;;;4.23;0.30;;;5.50;99.90;;;;;;5093603;28;20032;-73
2023/01/16 06:56:01;;;;;;;2.33;0.60;;;5.50;99.90;;;;;;5094581;28;20032;-71
2023/01/16 06:58:26;;;;;;;1.83;0.30;;;5.50;99.90;;;;;;5113296;28;20027;-71
2023/01/16 07:00:53;;;;;;;1.13;0.37;;;5.50;99.90;;;;;;5094032;28;20251;-71
2023/01/16 07:03:20;;;;;;;0.60;0.27;;;5.50;99.90;;;;;;5094791;28;20027;-71
2023/01/16 07:05:46;;;;;;;2.00;0.40;;;5.50;99.90;;;;;;5112324;28;20020;-71
2023/01/16 07:08:12;;;;;;;2.40;0.30;;;5.50;99.90;;;;;;5094921;28;20420;-71
2023/01/16 07:10:38;;;;;;;2.27;0.40;;;5.50;99.90;;;;;;5093953;28;20138;-71
2023/01/16 07:13:03;;;;;;;4.20;1.17;;;5.60;99.90;;;;;;5094666;28;20028;-71
2023/01/16 07:23:50;;;;;;;1.17;0.30;;;5.60;99.90;;;;;;5112014;28;20438;-71
2023/01/16 07:26:19;;;;;;;1.93;0.50;;;5.60;99.90;;;;;;5094527;28;20354;-71
2023/01/16 07:28:46;;;;;;;2.50;0.50;;;5.60;99.90;;;;;;5112179;28;20028;-71
2023/01/16 07:31:12;;;;;;;3.43;0.30;;;5.60;99.90;;;;;;5094424;28;20085;-71
2023/01/16 07:33:38;;;;;;;2.30;0.33;;;5.60;99.90;;;;;;5111863;28;20118;-72
2023/01/16 07:36:04;;;;;;;2.43;0.40;;;5.60;99.90;;;;;;5112657;28;20102;-71
2023/01/16 07:38:30;;;;;;;1.07;0.60;;;5.60;99.90;;;;;;5094553;28;20464;-71
2023/01/16 07:40:55;;;;;;;1.87;0.40;;;5.60;99.90;;;;;;5093675;28;20027;-71
2023/01/16 07:43:21;;;;;;;1.70;0.33;;;5.60;99.90;;;;;;5112452;28;20035;-71
2023/01/16 07:45:51;;;;;;;1.37;0.40;;;5.60;99.90;;;;;;5093652;28;20027;-71
2023/01/16 07:48:21;;;;;;;1.77;0.40;;;5.60;99.90;;;;;;5112334;28;20039;-71
2023/01/16 07:50:55;;;;;;;1.50;0.33;;;5.60;99.90;;;;;;5111677;28;20024;-70
2023/01/16 07:53:22;;;;;;;1.40;0.63;;;5.60;99.90;;;;;;5112451;28;20077;-71
2023/01/16 07:55:49;;;;;;;2.33;0.40;;;5.60;99.90;;;;;;5093561;28;20024;-71
2023/01/16 07:58:16;;;;;;;3.40;0.50;;;5.60;99.90;;;;;;5112553;28;20036;-71
2023/01/16 08:00:42;;;;;;;0.87;0.30;;;5.60;99.90;;;;;;5093435;28;20118;-71
2023/01/16 08:03:07;;;;;;;4.10;0.40;;;5.60;99.90;;;;;;5112634;28;20107;-71
2023/01/16 08:05:33;;;;;;;0.70;0.30;;;5.70;99.90;;;;;;5095866;28;20024;-71
2023/01/16 08:07:59;;;;;;;2.77;0.43;;;5.70;99.90;;;;;;5115616;28;20102;-71
2023/01/16 08:10:24;;;;;;;1.70;0.30;;;5.70;99.90;;;;;;5098245;28;20050;-71
2023/01/16 08:12:50;;;;;;;0.50;0.30;;;5.80;99.90;;;;;;5097416;28;20054;-71
2023/01/16 08:15:15;;;;;;;3.53;0.70;;;5.80;99.90;;;;;;5098131;28;20472;-71
2023/01/16 08:17:41;;;;;;;1.90;0.53;;;5.80;99.90;;;;;;5097073;28;20051;-72
2023/01/16 08:20:08;;;;;;;0.90;0.33;;;5.80;99.90;;;;;;5116253;28;20055;-71
2023/01/16 08:22:34;;;;;;;2.13;0.63;;;5.90;99.90;;;;;;5097945;28;20106;-71
2023/01/16 08:24:59;;;;;;;3.90;0.50;;;5.90;99.90;;;;;;5115145;28;20645;-70
2023/01/16 08:27:25;;;;;;;1.40;0.30;;;5.90;99.90;;;;;;5097732;28;20118;-70
2023/01/16 08:29:50;;;;;;;4.23;0.60;;;5.90;99.90;;;;;;5096971;28;20076;-71
2023/01/16 08:32:16;;;;;;;1.87;0.50;;;5.90;99.90;;;;;;5097684;28;20027;-71
2023/01/16 08:34:42;;;;;;;1.40;0.50;;;5.90;99.90;;;;;;5096861;28;20028;-73
2023/01/16 08:37:10;;;;;;;1.20;0.40;;;6.00;99.90;;;;;;5097668;28;20434;-72
2023/01/16 08:39:36;;;;;;;0.97;0.43;;;6.00;99.90;;;;;;5097541;28;20118;-71
2023/01/16 08:53:02;;;;;;;1.83;0.30;;;6.40;99.90;;;;;;5114756;28;20131;-71
2023/01/16 08:55:28;;;;;;;1.17;0.17;;;6.50;99.90;;;;;;5097197;28;20551;-71
2023/01/16 08:57:53;;;;;;;2.27;0.20;;;6.70;99.90;;;;;;5083843;28;20042;-71
2023/01/16 09:00:19;;;;;;;1.30;0.20;;;6.80;99.90;;;;;;5097746;28;20077;-71
2023/01/16 09:02:46;;;;;;;0.63;0.23;;;6.80;99.90;;;;;;5114414;28;20020;-72
2023/01/16 09:05:13;;;;;;;0.30;0.20;;;6.90;99.90;;;;;;5112409;28;20059;-71
2023/01/16 09:07:39;;;;;;;1.17;0.30;;;7.00;99.90;;;;;;5096903;28;20026;-71
2023/01/16 09:10:05;;;;;;;2.87;0.10;;;7.00;99.90;;;;;;5095980;28;20024;-71
2023/01/16 09:15:15;;;;;;;0.50;0.20;;;7.10;99.90;;;;;;5114124;28;20039;-71
2023/01/16 09:17:40;;;;;;;2.17;0.23;;;7.20;99.90;;;;;;5096896;28;20451;-74
2023/01/16 09:20:06;;;;;;;0.97;0.20;;;7.30;99.90;;;;;;5114141;28;20030;-71
2023/01/16 09:22:32;;;;;;;0.60;0.30;;;7.30;99.90;;;;;;5096293;28;20016;-71
2023/01/16 09:24:58;;;;;;;0.40;0.17;;;7.30;99.90;;;;;;5113259;28;20057;-71
2023/01/16 09:27:24;;;;;;;1.37;1.07;;;7.40;99.90;;;;;;5106058;28;20507;-71
2023/01/16 09:29:50;;;;;;;0.60;0.13;;;7.40;99.90;;;;;;5105790;28;20027;-72
2023/01/16 09:32:18;;;;;;;0.20;0.10;;;7.40;99.90;;;;;;5096216;28;20036;-72
2023/01/16 09:34:43;;;;;;;1.50;0.20;;;7.40;99.90;;;;;;5099666;28;20035;-74
2023/01/16 09:37:09;;;;;;;0.27;0.10;;;7.50;99.90;;;;;;5112748;28;20163;-71
2023/01/16 09:39:35;;;;;;;1.03;0.20;;;7.50;99.90;;;;;;5114522;28;20026;-72
2023/01/16 09:44:48;;;;;;;1.08;0.10;;;7.50;99.90;;;;;;5113236;28;20088;-74
2023/01/16 09:47:14;;;;;;;0.30;0.10;;;7.50;99.90;;;;;;5103441;28;20031;-72
2023/01/16 09:49:51;;;;;;;0.13;0.10;;;7.50;99.90;;;;;;5112969;28;20024;-72
2023/01/16 10:01:00;;;;;;;0.53;0.20;;;7.60;99.90;;;;;;5113094;28;20126;-71
2023/01/16 10:03:25;;;;;;;2.67;0.20;;;7.60;99.90;;;;;;5102343;28;20055;-71
2023/01/16 10:05:58;;;;;;;0.53;0.23;;;7.60;99.90;;;;;;5108117;28;20107;-72
2023/01/16 10:08:44;;;;;;;0.37;0.20;;;7.60;99.90;;;;;;5113817;28;20020;-71
2023/01/16 10:11:30;;;;;;;0.88;0.25;;;7.60;99.90;;;;;;5104205;28;20027;-72
2023/01/16 10:14:11;;;;;;;0.40;0.10;;;7.70;99.90;;;;;;5094328;28;20362;-72
2023/01/16 10:17:14;;;;;;;0.40;0.15;;;7.70;99.90;;;;;;5113230;28;20024;-72
2023/01/16 10:19:55;;;;;;;0.52;0.13;;;7.70;99.90;;;;;;5081861;28;20040;-72
2023/01/16 10:22:39;;;;;;;0.57;0.30;;;7.70;99.90;;;;;;5080565;28;20461;-71
2023/01/16 10:25:08;;;;;;;2.08;0.30;;;7.70;99.90;;;;;;5110943;28;20039;-70
2023/01/16 10:27:41;;;;;;;0.77;0.40;;;7.80;99.90;;;;;;5090710;28;20111;-71
2023/01/16 10:30:18;;;;;;;0.47;0.20;;;7.80;99.90;;;;;;5109306;28;20031;-71
2023/01/16 10:32:58;;;;;;;0.77;0.20;;;7.80;99.90;;;;;;5098980;28;20027;-73
2023/01/16 10:35:28;;;;;;;1.10;0.15;;;7.80;99.90;;;;;;5112857;28;20032;-71
2023/01/16 10:37:56;;;;;;;0.40;0.17;;;7.80;99.90;;;;;;5094178;28;20030;-71
2023/01/16 10:40:25;;;;;;;0.32;0.10;;;7.80;99.90;;;;;;5096129;28;20477;-70
2023/01/16 10:51:16;;;;;;;0.50;0.20;;;7.90;99.90;;;;;;5105090;28;20030;-72
2023/01/16 10:53:43;;;;;;;0.32;0.10;;;7.90;99.90;;;;;;5112656;28;20027;-72
2023/01/16 10:56:10;;;;;;;0.77;0.17;;;7.80;99.90;;;;;;5109984;28;20028;-72
2023/01/16 10:58:39;;;;;;;0.28;0.10;;;7.90;99.90;;;;;;5087981;28;20488;-73
2023/01/16 11:01:17;;;;;;;0.40;0.20;;;7.90;99.90;;;;;;5103433;28;20097;-73
2023/01/16 11:03:52;;;;;;;0.98;0.20;;;7.90;99.90;;;;;;5112824;28;20024;-72
2023/01/16 11:06:27;;;;;;;0.28;0.10;;;7.90;99.90;;;;;;5112420;28;20023;-72
2023/01/16 11:08:55;;;;;;;0.50;0.20;;;7.90;99.90;;;;;;5099122;28;20388;-72
2023/01/16 11:20:23;;;;;;;1.38;0.20;;;8.10;99.90;;;;;;5111932;28;20042;-72
2023/01/16 11:22:58;;;;;;;0.25;0.20;;;8.20;99.90;;;;;;5093302;28;20026;-73
2023/01/16 11:25:26;;;;;;;0.70;0.30;;;8.10;99.90;;;;;;5111965;28;20035;-72
2023/01/16 11:27:52;;;;;;;0.13;0.10;;;8.10;99.90;;;;;;5081330;28;20086;-73
2023/01/16 11:30:27;;;;;;;0.10;0.10;;;8.10;99.90;;;;;;5094169;28;20024;-71
2023/01/16 11:32:55;;;;;;;0.50;0.13;;;8.10;99.90;;;;;;5092832;28;20023;-72
2023/01/16 11:35:29;;;;;;;0.13;0.08;;;8.10;99.90;;;;;;5111938;28;20039;-71
2023/01/16 11:37:56;;;;;;;0.40;0.20;;;8.10;99.90;;;;;;5093356;28;20119;-71
2023/01/16 11:40:24;;;;;;;0.28;0.10;;;8.10;99.90;;;;;;5097234;28;20015;-71
2023/01/16 11:46:02;;;;;;;0.10;0.03;;;8.20;99.90;;;;;;5118807;28;20066;-71
2023/01/16 11:48:52;;;;;;;0.13;0.10;;;8.30;99.90;;;;;;5085833;28;20066;-71
2023/01/16 11:51:23;;;;;;;0.22;0.00;;;8.40;99.90;;;;;;5100001;28;20063;-71
2023/01/16 11:53:50;;;;;;;0.15;0.10;;;8.40;99.90;;;;;;5118340;28;20078;-73
2023/01/16 11:56:40;;;;;;;0.45;0.10;;;8.40;99.90;;;;;;5079662;28;20024;-71
2023/01/16 11:59:23;;;;;;;0.47;0.00;;;8.50;99.90;;;;;;5079603;28;20324;-71
2023/01/16 12:02:19;;;;;;;0.52;0.10;;;8.50;99.90;;;;;;5097935;28;20111;-73
2023/01/16 12:08:06;;;;;;;0.82;0.10;;;8.40;99.90;;;;;;5114594;28;20035;-72
2023/01/16 12:10:47;;;;;;;0.20;0.10;;;8.50;99.90;;;;;;5100457;28;20384;-71
2023/01/16 12:16:13;;;;;;;0.10;0.08;;;8.70;99.90;;;;;;5117718;28;20037;-71
2023/01/16 12:18:57;;;;;;;0.43;0.03;;;8.70;99.90;;;;;;5107060;28;20050;-71
2023/01/16 12:21:23;;;;;;;0.43;0.00;;;8.70;99.90;;;;;;5118479;28;20103;-71
2023/01/16 12:24:22;;;;;;;1.15;0.10;;;8.80;99.90;;;;;;5118337;28;20111;-73
2023/01/16 12:27:12;;;;;;;1.55;0.10;;;9.00;99.90;;;;;;5097106;28;20400;-73
2023/01/16 12:29:59;;;;;;;0.55;0.20;;;9.30;99.90;;;;;;5080481;28;20564;-71
2023/01/16 12:32:59;;;;;;;1.25;0.00;;;9.70;99.90;;;;;;5079570;28;20031;-71
2023/01/16 12:35:32;;;;;;;0.20;0.05;;;9.30;99.90;;;;;;5097968;28;20031;-71
2023/01/16 12:38:12;;;;;;;0.63;0.17;;;9.30;99.90;;;;;;5115265;28;20027;-72
2023/01/16 12:44:32;;;;;;;0.10;0.05;;;9.40;99.90;;;;;;5117954;28;20096;-71
2023/01/16 12:47:24;;;;;;;0.10;0.00;;;9.30;99.90;;;;;;5117161;27;20051;-71
2023/01/16 12:50:05;;;;;;;0.20;0.05;;;9.20;99.90;;;;;;5117967;28;20042;-71
2023/01/16 12:52:52;;;;;;;0.57;0.00;;;9.20;99.90;;;;;;5114338;27;20357;-71
2023/01/16 12:55:55;;;;;;;0.50;0.03;;;9.00;99.90;;;;;;5113211;28;20030;-71
2023/01/16 12:58:30;;;;;;;0.05;0.05;;;9.00;99.90;;;;;;5099126;28;20047;-71
2023/01/16 13:01:16;;;;;;;0.10;0.00;;;9.30;99.90;;;;;;5090063;28;20039;-71
2023/01/16 13:03:52;;;;;;;0.50;0.00;;;9.50;99.90;;;;;;5115002;28;20027;-71
2023/01/16 13:06:36;;;;;;;0.00;0.00;;;9.50;99.90;;;;;;5094245;28;20553;-71
2023/01/16 13:09:09;;;;;;;1.10;0.08;;;9.40;99.90;;;;;;5093758;28;20057;-72
2023/01/16 13:14:32;;;;;;;0.43;0.17;;;9.20;99.90;;;;;;5100187;28;20084;-71
2023/01/16 13:17:11;;;;;;;0.00;0.00;;;9.10;99.90;;;;;;5106613;28;20027;-71
2023/01/16 13:19:40;;;;;;;1.02;0.22;;;9.00;99.90;;;;;;5076177;28;20044;-71
2023/01/16 13:22:08;;;;;;;0.03;0.03;;;8.90;99.90;;;;;;5075161;28;20032;-71
2023/01/16 13:25:02;;;;;;;0.15;0.05;;;8.90;99.90;;;;;;5075917;28;20027;-72
2023/01/16 13:27:59;;;;;;;0.28;0.10;;;8.90;99.90;;;;;;5085134;28;20024;-71
2023/01/16 13:30:25;;;;;;;1.95;0.00;;;8.90;99.90;;;;;;5079179;28;20063;-71
2023/01/16 13:33:03;;;;;;;0.10;0.00;;;9.00;99.90;;;;;;5075416;28;20035;-73
2023/01/16 13:35:53;;;;;;;0.38;0.10;;;9.00;99.90;;;;;;5075596;28;20545;-71
2023/01/16 13:39:01;;;;;;;0.30;0.15;;;9.00;99.90;;;;;;5059725;28;20412;-71
2023/01/16 13:41:31;;;;;;;1.65;0.08;;;9.00;99.90;;;;;;5075350;28;20024;-71
2023/01/16 13:47:15;;;;;;;0.10;0.05;;;8.90;99.90;;;;;;5092597;28;20035;-71
2023/01/16 13:49:47;;;;;;;0.40;0.10;;;9.00;99.90;;;;;;5093619;28;20027;-71
2023/01/16 13:52:19;;;;;;;;;;;9.10;99.90;;;;;;5075041;28;20020;-72
2023/01/16 13:54:47;;;;;;;0.88;0.00;;;9.10;99.90;;;;;;5093352;28;19918;-72
2023/01/16 13:57:23;;;;;;;0.38;0.15;;;9.20;99.90;;;;;;5085699;28;20036;-72
2023/01/16 13:59:52;;;;;;;0.22;0.10;;;9.20;99.90;;;;;;5071976;28;20065;-73
2023/01/16 14:02:36;;;;;;;0.13;0.10;;;9.10;99.90;;;;;;5074622;28;20389;-72
2023/01/16 14:05:08;;;;;;;0.10;0.10;;;9.00;99.90;;;;;;5092457;28;20043;-71
2023/01/16 14:11:02;;;;;;;1.55;0.57;;;8.90;99.90;;;;;;5079912;28;20031;-71
2023/01/16 14:13:40;;;;;;;0.20;0.20;;;8.90;99.90;;;;;;5075154;28;20024;-72
2023/01/16 14:16:37;;;;;;;0.20;0.20;;;8.90;99.90;;;;;;5074060;28;20032;-72
2023/01/16 14:19:21;;;;;;;0.30;0.10;;;8.80;99.90;;;;;;5087063;28;20048;-72
2023/01/16 14:24:43;;;;;;;0.60;0.10;;;8.80;99.90;;;;;;5078810;28;20024;-72
2023/01/16 14:27:14;;;;;;;0.38;0.10;;;8.80;99.90;;;;;;5085524;28;20024;-72
2023/01/16 14:29:52;;;;;;;1.25;0.10;;;8.80;99.90;;;;;;5086870;28;20039;-72
2023/01/16 14:32:19;;;;;;;0.20;0.10;;;8.80;99.90;;;;;;5092565;28;20031;-72
2023/01/16 14:35:16;;;;;;;1.58;0.30;;;8.70;99.90;;;;;;5092702;28;20023;-72
2023/01/16 14:37:45;;;;;;;0.28;0.10;;;8.70;99.90;;;;;;5083034;28;20446;-72
2023/01/16 14:40:10;;;;;;;0.45;0.10;;;8.70;99.90;;;;;;5092098;28;20415;-72